createdAt,value
2018-06-24T00:01:29.086Z,92.70
2018-06-24T00:03:57.335Z,92.70
2018-06-24T00:06:25.600Z,92.80
2018-06-24T00:08:53.854Z,92.80
2018-06-24T00:11:22.350Z,92.90
2018-06-24T00:13:50.639Z,92.90
2018-06-24T00:16:18.867Z,93.00
2018-06-24T00:18:47.143Z,93.10
2018-06-24T00:21:15.383Z,93.10
2018-06-24T00:23:43.583Z,93.10
2018-06-24T00:26:11.835Z,93.20
2018-06-24T00:28:40.022Z,93.20
2018-06-24T00:31:08.281Z,93.20
2018-06-24T00:33:36.451Z,93.30
2018-06-24T00:36:04.740Z,93.40
2018-06-24T00:38:32.970Z,93.50
2018-06-24T00:41:01.217Z,93.90
2018-06-24T00:43:29.466Z,93.50
2018-06-24T00:45:57.673Z,93.60
2018-06-24T00:48:25.928Z,93.60
2018-06-24T00:50:54.247Z,93.60
2018-06-24T00:53:22.451Z,93.60
2018-06-24T00:55:50.671Z,93.70
2018-06-24T00:58:18.927Z,93.70
2018-06-24T01:00:47.188Z,93.70
2018-06-24T01:03:15.440Z,93.70
2018-06-24T01:05:43.699Z,93.70
2018-06-24T01:10:39.888Z,93.70
2018-06-24T01:13:08.194Z,93.80
2018-06-24T01:15:36.640Z,93.70
2018-06-24T01:18:04.921Z,93.80
2018-06-24T01:20:33.169Z,93.80
2018-06-24T01:23:01.342Z,93.80
2018-06-24T01:25:29.542Z,93.90
2018-06-24T01:27:57.817Z,93.90
2018-06-24T01:30:26.073Z,94.00
2018-06-24T01:32:54.330Z,93.90
2018-06-24T01:35:22.589Z,94.00
2018-06-24T01:37:50.825Z,93.90
2018-06-24T01:40:19.015Z,93.90
2018-06-24T01:42:47.265Z,94.10
2018-06-24T01:45:15.513Z,94.10
2018-06-24T01:47:43.885Z,94.10
2018-06-24T01:50:12.083Z,94.10
2018-06-24T01:52:40.344Z,94.10
2018-06-24T01:55:08.537Z,94.20
2018-06-24T01:57:36.785Z,94.20
2018-06-24T02:00:05.165Z,94.20
2018-06-24T02:02:33.384Z,94.30
2018-06-24T02:05:01.637Z,94.40
2018-06-24T02:07:29.889Z,94.40
2018-06-24T02:09:58.165Z,94.50
2018-06-24T02:12:26.411Z,94.50
2018-06-24T02:14:54.650Z,94.50
2018-06-24T02:17:22.856Z,94.60
2018-06-24T02:19:51.063Z,94.60
2018-06-24T02:22:19.242Z,94.70
2018-06-24T02:24:47.477Z,94.70
2018-06-24T02:27:15.771Z,94.80
2018-06-24T02:29:44.013Z,94.80
2018-06-24T02:32:12.219Z,95.00
2018-06-24T02:34:40.465Z,95.00
2018-06-24T02:37:08.885Z,95.00
2018-06-24T02:39:37.145Z,95.10
2018-06-24T02:42:05.404Z,95.10
2018-06-24T02:44:33.598Z,95.10
2018-06-24T02:49:29.884Z,95.30
2018-06-24T02:51:58.083Z,95.30
2018-06-24T02:54:26.275Z,95.40
2018-06-24T02:56:54.548Z,95.50
2018-06-24T02:59:22.764Z,95.40
2018-06-24T03:01:50.951Z,95.50
2018-06-24T03:04:19.206Z,95.50
2018-06-24T03:06:47.460Z,95.50
2018-06-24T03:09:15.725Z,95.50
2018-06-24T03:11:43.975Z,95.60
2018-06-24T03:14:12.252Z,95.70
2018-06-24T03:16:40.502Z,95.80
2018-06-24T03:19:08.736Z,95.90
2018-06-24T03:21:36.991Z,95.90
2018-06-24T03:26:33.173Z,96.10
2018-06-24T03:29:02.219Z,96.10
2018-06-24T03:31:30.484Z,96.20
2018-06-24T03:33:58.753Z,96.30
2018-06-24T03:36:27.039Z,96.30
2018-06-24T03:38:55.215Z,96.40
2018-06-24T03:41:23.482Z,96.30
2018-06-24T03:43:51.729Z,96.30
2018-06-24T03:46:19.935Z,96.40
2018-06-24T03:48:48.123Z,96.50
2018-06-24T03:51:16.306Z,96.60
2018-06-24T03:53:44.596Z,97.10
2018-06-24T03:56:12.825Z,96.70
2018-06-24T03:58:40.991Z,96.70
2018-06-24T04:01:09.246Z,96.70
2018-06-24T04:03:37.498Z,96.70
2018-06-24T04:06:05.777Z,96.60
2018-06-24T04:08:34.025Z,96.60
2018-06-24T04:11:02.342Z,96.60
2018-06-24T04:13:30.609Z,96.50
2018-06-24T04:16:03.138Z,96.50
2018-06-24T04:18:35.430Z,96.50
2018-06-24T04:25:01.035Z,96.20
2018-06-24T04:27:29.301Z,96.10
2018-06-24T04:29:57.532Z,95.90
2018-06-24T04:32:25.734Z,96.00
2018-06-24T04:34:53.919Z,96.00
2018-06-24T04:37:22.230Z,95.90
2018-06-24T04:39:50.470Z,95.90
2018-06-24T04:42:18.699Z,95.90
2018-06-24T04:44:46.907Z,95.80
2018-06-24T04:47:15.176Z,95.90
2018-06-24T04:49:43.387Z,96.10
2018-06-24T04:52:11.641Z,96.00
2018-06-24T04:54:39.879Z,95.80
2018-06-24T04:57:08.156Z,95.80
2018-06-24T04:59:36.336Z,95.70
2018-06-24T05:02:04.620Z,95.50
2018-06-24T05:04:32.795Z,95.50
2018-06-24T05:07:01.056Z,95.40
2018-06-24T05:09:29.258Z,95.30
2018-06-24T05:11:57.505Z,95.10
2018-06-24T05:14:25.708Z,95.00
2018-06-24T05:16:53.908Z,95.00
2018-06-24T05:19:22.115Z,94.90
2018-06-24T05:21:50.299Z,95.00
2018-06-24T05:24:18.732Z,94.80
2018-06-24T05:26:46.987Z,94.70
2018-06-24T05:29:15.179Z,94.80
2018-06-24T05:31:43.422Z,94.60
2018-06-24T05:34:11.663Z,94.40
2018-06-24T05:36:39.894Z,94.20
2018-06-24T05:39:10.134Z,94.10
2018-06-24T05:44:06.406Z,93.70
2018-06-24T05:46:34.640Z,93.30
2018-06-24T05:49:02.857Z,93.20
2018-06-24T05:51:31.059Z,93.00
2018-06-24T05:53:59.251Z,92.90
2018-06-24T05:56:27.508Z,92.90
2018-06-24T05:58:55.969Z,92.90
2018-06-24T06:01:24.171Z,92.70
2018-06-24T06:03:52.358Z,92.70
2018-06-24T06:06:20.586Z,92.70
2018-06-24T06:08:48.778Z,92.80
2018-06-24T06:11:17.073Z,92.70
2018-06-24T06:13:45.456Z,92.80
2018-06-24T06:16:13.660Z,92.90
2018-06-24T06:18:41.901Z,92.90
2018-06-24T06:21:10.109Z,92.90
2018-06-24T06:23:38.307Z,93.00
2018-06-24T06:26:06.523Z,92.90
2018-06-24T06:28:34.890Z,93.00
2018-06-24T06:31:03.130Z,92.90
2018-06-24T06:33:31.421Z,92.90
2018-06-24T06:36:00.498Z,92.70
2018-06-24T06:38:28.757Z,92.80
2018-06-24T06:40:56.985Z,92.90
2018-06-24T06:43:25.264Z,92.70
2018-06-24T06:45:53.443Z,92.70
2018-06-24T06:48:21.755Z,92.80
2018-06-24T06:50:50.019Z,92.70
2018-06-24T06:53:18.220Z,92.90
2018-06-24T06:55:46.504Z,92.90
2018-06-24T06:58:14.824Z,92.70
2018-06-24T07:00:43.102Z,92.80
2018-06-24T07:03:11.477Z,92.60
2018-06-24T07:05:39.670Z,92.60
2018-06-24T07:08:07.960Z,92.60
2018-06-24T07:10:36.217Z,92.70
2018-06-24T07:13:04.545Z,92.80
2018-06-24T07:15:32.712Z,92.80
2018-06-24T07:18:00.904Z,92.90
2018-06-24T07:20:29.107Z,92.90
2018-06-24T07:22:57.381Z,93.10
2018-06-24T07:25:25.644Z,92.80
2018-06-24T07:27:53.828Z,92.70
2018-06-24T07:30:22.088Z,92.50
2018-06-24T07:32:50.370Z,92.40
2018-06-24T07:35:18.602Z,92.40
2018-06-24T07:37:46.883Z,92.20
2018-06-24T07:40:15.131Z,92.20
2018-06-24T07:42:43.371Z,92.20
2018-06-24T07:45:11.629Z,92.30
2018-06-24T07:47:39.882Z,92.30
2018-06-24T07:50:08.753Z,92.00
2018-06-24T07:52:37.150Z,91.70
2018-06-24T07:55:05.559Z,91.60
2018-06-24T08:00:02.001Z,91.30
2018-06-24T08:02:30.282Z,90.60
2018-06-24T08:04:58.491Z,89.80
2018-06-24T08:07:26.714Z,90.10
2018-06-24T08:09:54.951Z,89.70
2018-06-24T08:12:23.131Z,88.30
2018-06-24T08:14:51.343Z,88.00
2018-06-24T08:17:19.591Z,86.60
2018-06-24T08:19:47.847Z,87.10
2018-06-24T08:22:16.092Z,87.20
2018-06-24T08:24:44.359Z,87.00
2018-06-24T08:27:12.791Z,87.10
2018-06-24T08:32:09.824Z,86.10
2018-06-24T08:34:38.006Z,85.10
2018-06-24T08:37:06.190Z,84.50
2018-06-24T08:39:34.464Z,84.50
2018-06-24T08:42:02.726Z,84.10
2018-06-24T08:44:30.926Z,83.20
2018-06-24T08:46:59.202Z,80.90
2018-06-24T08:49:27.462Z,81.60
2018-06-24T08:51:55.671Z,81.10
2018-06-24T08:54:23.931Z,80.10
2018-06-24T08:56:52.136Z,78.60
2018-06-24T08:59:20.374Z,76.10
2018-06-24T09:01:48.915Z,74.90
2018-06-24T09:04:17.127Z,75.20
2018-06-24T09:06:45.392Z,74.30
2018-06-24T09:11:41.555Z,73.50
2018-06-24T09:14:09.855Z,74.30
2018-06-24T09:16:38.068Z,72.40
2018-06-24T09:19:06.310Z,70.20
2018-06-24T09:21:34.855Z,67.50
2018-06-24T09:24:03.094Z,69.10
2018-06-24T09:26:31.333Z,68.60
2018-06-24T09:28:59.623Z,69.00
2018-06-24T09:31:28.004Z,69.50
2018-06-24T09:33:56.697Z,68.90
2018-06-24T09:36:24.942Z,69.60
2018-06-24T09:38:53.132Z,69.30
2018-06-24T09:41:21.358Z,70.30
2018-06-24T09:43:49.556Z,71.20
2018-06-24T09:46:17.731Z,71.80
2018-06-24T09:48:45.943Z,72.80
2018-06-24T09:51:14.193Z,72.30
2018-06-24T09:53:42.436Z,72.10
2018-06-24T09:56:10.622Z,72.50
2018-06-24T09:58:38.873Z,72.70
2018-06-24T10:01:07.130Z,73.30
2018-06-24T10:03:35.396Z,72.90
2018-06-24T10:06:03.661Z,71.50
2018-06-24T10:08:31.839Z,70.30
2018-06-24T10:11:00.090Z,69.80
2018-06-24T10:13:28.222Z,69.20
2018-06-24T10:15:56.487Z,68.80
2018-06-24T10:18:24.752Z,69.20
2018-06-24T10:20:53.001Z,68.10
2018-06-24T10:23:21.246Z,66.20
2018-06-24T10:25:49.992Z,65.60
2018-06-24T10:28:18.164Z,64.30
2018-06-24T10:30:46.430Z,64.00
2018-06-24T10:33:14.612Z,64.50
2018-06-24T10:35:42.878Z,64.10
2018-06-24T10:38:11.149Z,64.20
2018-06-24T10:40:39.343Z,64.60
2018-06-24T10:43:07.640Z,64.40
2018-06-24T10:45:35.847Z,65.40
2018-06-24T10:48:04.331Z,65.40
2018-06-24T10:53:00.794Z,65.40
2018-06-24T10:55:28.967Z,62.10
2018-06-24T10:57:57.153Z,58.60
2018-06-24T11:00:25.409Z,57.40
2018-06-24T11:02:53.672Z,57.90
2018-06-24T11:05:21.923Z,59.20
2018-06-24T11:07:50.178Z,60.20
2018-06-24T11:10:18.439Z,62.60
2018-06-24T11:12:46.631Z,64.40
2018-06-24T11:15:14.822Z,65.90
2018-06-24T11:17:43.027Z,67.30
2018-06-24T11:20:11.265Z,67.50
2018-06-24T11:22:39.508Z,66.70
2018-06-24T11:25:07.719Z,65.60
2018-06-24T11:27:35.965Z,65.80
2018-06-24T11:32:32.734Z,63.80
2018-06-24T11:35:00.939Z,59.80
2018-06-24T11:37:29.210Z,58.10
2018-06-24T11:39:57.419Z,56.80
2018-06-24T11:42:25.718Z,58.30
2018-06-24T11:44:53.986Z,58.50
2018-06-24T11:47:22.257Z,58.70
2018-06-24T11:49:50.450Z,58.30
2018-06-24T11:52:18.724Z,58.10
2018-06-24T11:54:46.949Z,57.80
2018-06-24T11:59:43.551Z,53.40
2018-06-24T12:02:11.796Z,50.70
2018-06-24T12:07:08.195Z,47.30
2018-06-24T12:09:36.405Z,47.70
2018-06-24T12:12:04.603Z,48.00
2018-06-24T12:14:32.797Z,49.20
2018-06-24T12:17:01.058Z,48.30
2018-06-24T12:19:29.246Z,47.40
2018-06-24T12:21:57.518Z,45.80
2018-06-24T12:24:25.789Z,45.50
2018-06-24T12:26:54.045Z,45.00
2018-06-24T12:29:22.264Z,45.30
2018-06-24T12:31:50.528Z,45.30
2018-06-24T12:34:18.781Z,45.70
2018-06-24T12:36:47.114Z,45.60
2018-06-24T12:39:16.727Z,46.20
2018-06-24T12:41:44.928Z,46.30
2018-06-24T12:44:13.180Z,46.20
2018-06-24T12:46:41.442Z,46.10
2018-06-24T12:49:09.688Z,44.80
2018-06-24T12:51:38.628Z,43.90
2018-06-24T12:54:07.253Z,43.80
2018-06-24T12:56:35.492Z,45.30
2018-06-24T12:59:03.864Z,45.80
2018-06-24T13:01:31.886Z,44.20
2018-06-24T13:04:00.102Z,43.90
2018-06-24T13:06:28.355Z,43.30
2018-06-24T13:08:56.557Z,43.80
2018-06-24T13:11:25.078Z,44.90
2018-06-24T13:13:53.284Z,46.00
2018-06-24T13:16:21.495Z,45.70
2018-06-24T13:18:49.753Z,44.00
2018-06-24T13:21:18.070Z,42.50
2018-06-24T13:23:46.219Z,43.10
2018-06-24T13:26:14.460Z,44.90
2018-06-24T13:28:42.759Z,46.40
2018-06-24T13:31:11.006Z,46.60
2018-06-24T13:33:39.200Z,46.80
2018-06-24T13:36:07.676Z,46.80
2018-06-24T13:38:35.930Z,47.00
2018-06-24T13:41:04.159Z,46.70
2018-06-24T13:43:32.350Z,46.00
2018-06-24T13:46:00.603Z,45.70
2018-06-24T13:48:28.876Z,44.90
2018-06-24T13:50:57.085Z,44.00
2018-06-24T13:53:25.550Z,44.30
2018-06-24T13:55:53.776Z,44.10
2018-06-24T13:58:21.996Z,43.50
2018-06-24T14:00:50.391Z,43.10
2018-06-24T14:03:18.628Z,43.10
2018-06-24T14:05:46.836Z,42.60
2018-06-24T14:08:15.087Z,42.90
2018-06-24T14:10:43.284Z,41.10
2018-06-24T14:13:11.519Z,41.00
2018-06-24T14:15:39.749Z,42.20
2018-06-24T14:18:08.011Z,42.60
2018-06-24T14:20:36.263Z,41.80
2018-06-24T14:23:04.929Z,43.40
2018-06-24T14:25:33.190Z,44.10
2018-06-24T14:28:01.424Z,45.10
2018-06-24T14:30:29.656Z,46.60
2018-06-24T14:32:57.930Z,47.80
2018-06-24T14:35:26.177Z,48.50
2018-06-24T14:37:54.399Z,48.90
2018-06-24T14:42:50.853Z,49.90
2018-06-24T14:47:47.081Z,50.60
2018-06-24T14:50:15.334Z,50.90
2018-06-24T14:52:43.528Z,51.00
2018-06-24T14:55:11.760Z,50.90
2018-06-24T14:57:40.022Z,50.50
2018-06-24T15:00:08.223Z,49.80
2018-06-24T15:02:40.479Z,49.70
2018-06-24T15:05:09.052Z,49.50
2018-06-24T15:07:37.333Z,49.90
2018-06-24T15:10:05.559Z,50.50
2018-06-24T15:12:34.020Z,50.20
2018-06-24T15:15:02.282Z,50.80
2018-06-24T15:17:30.548Z,50.80
2018-06-24T15:19:58.797Z,51.30
2018-06-24T15:22:27.035Z,51.80
2018-06-24T15:27:23.301Z,51.50
2018-06-24T15:29:51.542Z,51.70
2018-06-24T15:32:19.719Z,50.70
2018-06-24T15:34:47.943Z,50.40
2018-06-24T15:37:16.190Z,50.20
2018-06-24T15:39:44.407Z,50.60
2018-06-24T15:42:12.874Z,50.40
2018-06-24T15:47:09.375Z,51.20
2018-06-24T15:49:37.607Z,50.60
2018-06-24T15:52:05.932Z,50.80
2018-06-24T15:54:34.191Z,49.60
2018-06-24T15:57:03.328Z,48.60
2018-06-24T15:59:31.593Z,49.20
2018-06-24T16:01:59.894Z,49.90
2018-06-24T16:04:28.032Z,49.80
2018-06-24T16:06:56.212Z,49.80
2018-06-24T16:09:24.788Z,50.20
2018-06-24T16:11:53.050Z,50.50
2018-06-24T16:14:21.293Z,50.50
2018-06-24T16:16:49.546Z,50.70
2018-06-24T16:19:18.654Z,51.10
2018-06-24T16:21:46.839Z,51.60
2018-06-24T16:24:15.085Z,51.60
2018-06-24T16:26:43.289Z,51.80
2018-06-24T16:29:11.572Z,52.50
2018-06-24T16:31:39.768Z,53.20
2018-06-24T16:34:08.064Z,53.80
2018-06-24T16:36:36.271Z,54.30
2018-06-24T16:39:07.621Z,54.50
2018-06-24T16:41:35.935Z,54.20
2018-06-24T16:44:04.143Z,54.50
2018-06-24T16:46:32.407Z,54.90
2018-06-24T16:49:00.827Z,55.00
2018-06-24T16:51:29.031Z,55.30
2018-06-24T16:53:57.237Z,55.60
2018-06-24T16:56:25.494Z,55.90
2018-06-24T16:58:53.730Z,56.20
2018-06-24T17:01:21.915Z,56.50
2018-06-24T17:03:50.174Z,56.70
2018-06-24T17:06:19.117Z,57.00
2018-06-24T17:08:47.299Z,57.20
2018-06-24T17:11:15.523Z,57.50
2018-06-24T17:13:43.715Z,57.80
2018-06-24T17:16:11.921Z,58.10
2018-06-24T17:18:40.178Z,58.30
2018-06-24T17:21:08.454Z,58.30
2018-06-24T17:23:36.654Z,58.40
2018-06-24T17:26:04.928Z,58.50
2018-06-24T17:28:33.196Z,58.50
2018-06-24T17:31:01.410Z,58.90
2018-06-24T17:33:29.687Z,59.20
2018-06-24T17:35:57.908Z,59.50
2018-06-24T17:38:26.161Z,59.40
2018-06-24T17:40:54.369Z,59.60
2018-06-24T17:43:22.561Z,59.80
2018-06-24T17:45:50.768Z,60.00
2018-06-24T17:48:18.970Z,60.00
2018-06-24T17:50:47.210Z,60.00
2018-06-24T17:53:15.578Z,60.20
2018-06-24T17:55:43.717Z,60.30
2018-06-24T17:58:11.969Z,60.30
2018-06-24T18:00:40.234Z,60.70
2018-06-24T18:03:08.445Z,60.90
2018-06-24T18:05:36.652Z,61.10
2018-06-24T18:08:05.248Z,61.40
2018-06-24T18:10:33.493Z,61.60
2018-06-24T18:13:01.740Z,62.00
2018-06-24T18:15:29.934Z,62.00
2018-06-24T18:17:58.207Z,61.90
2018-06-24T18:20:26.938Z,62.20
2018-06-24T18:22:55.469Z,62.20
2018-06-24T18:25:23.768Z,62.70
2018-06-24T18:27:52.074Z,62.70
2018-06-24T18:30:20.181Z,63.10
2018-06-24T18:32:48.518Z,63.40
2018-06-24T18:35:16.661Z,63.40
2018-06-24T18:37:44.925Z,63.60
2018-06-24T18:40:13.194Z,63.50
2018-06-24T18:42:41.420Z,63.60
2018-06-24T18:45:09.709Z,63.20
2018-06-24T18:47:38.039Z,63.40
2018-06-24T18:50:06.413Z,63.20
2018-06-24T18:52:34.620Z,63.20
2018-06-24T18:55:02.825Z,63.30
2018-06-24T18:57:31.102Z,63.40
2018-06-24T18:59:59.559Z,63.70
2018-06-24T19:02:27.831Z,63.90
2018-06-24T19:04:56.032Z,64.20
2018-06-24T19:07:24.311Z,64.40
2018-06-24T19:09:52.572Z,64.50
2018-06-24T19:12:20.772Z,64.30
2018-06-24T19:14:48.976Z,64.20
2018-06-24T19:17:17.229Z,64.10
2018-06-24T19:19:45.430Z,64.30
2018-06-24T19:22:13.657Z,64.70
2018-06-24T19:24:41.871Z,64.80
2018-06-24T19:27:10.358Z,65.40
2018-06-24T19:29:38.616Z,65.70
2018-06-24T19:32:06.967Z,66.00
2018-06-24T19:34:35.165Z,66.20
2018-06-24T19:37:03.427Z,67.40
2018-06-24T19:39:31.615Z,67.00
2018-06-24T19:41:59.898Z,67.20
2018-06-24T19:44:28.095Z,67.50
2018-06-24T19:46:56.450Z,67.50
2018-06-24T19:49:24.751Z,67.80
2018-06-24T19:51:53.021Z,68.10
2018-06-24T19:54:21.300Z,68.30
2018-06-24T19:56:49.542Z,68.50
2018-06-24T19:59:17.801Z,68.90
2018-06-24T20:01:45.989Z,69.30
2018-06-24T20:04:14.251Z,69.60
2018-06-24T20:06:42.423Z,69.90
2018-06-24T20:09:11.299Z,70.20
2018-06-24T20:11:39.617Z,70.50
2018-06-24T20:14:07.853Z,70.90
2018-06-24T20:16:36.136Z,71.10
2018-06-24T20:19:04.341Z,71.30
2018-06-24T20:21:32.895Z,71.60
2018-06-24T20:24:01.164Z,71.70
2018-06-24T20:26:29.350Z,71.90
2018-06-24T20:28:57.539Z,72.20
2018-06-24T20:31:25.808Z,72.50
2018-06-24T20:33:54.148Z,72.90
2018-06-24T20:36:22.405Z,72.90
2018-06-24T20:38:50.597Z,73.20
2018-06-24T20:41:18.808Z,73.50
2018-06-24T20:43:47.071Z,73.60
2018-06-24T20:46:15.325Z,73.70
2018-06-24T20:48:43.602Z,73.90
2018-06-24T20:51:11.803Z,74.00
2018-06-24T20:53:40.093Z,74.20
2018-06-24T20:56:08.314Z,74.50
2018-06-24T20:58:36.491Z,74.70
2018-06-24T21:03:32.738Z,75.10
2018-06-24T21:06:01.028Z,75.50
2018-06-24T21:08:29.207Z,75.80
2018-06-24T21:10:57.403Z,76.00
2018-06-24T21:13:25.713Z,76.40
2018-06-24T21:15:53.943Z,76.70
2018-06-24T21:18:22.232Z,76.80
2018-06-24T21:23:18.579Z,77.30
2018-06-24T21:25:46.830Z,77.50
2018-06-24T21:28:15.072Z,77.70
2018-06-24T21:30:43.283Z,77.70
2018-06-24T21:33:11.459Z,77.90
2018-06-24T21:35:40.045Z,78.00
2018-06-24T21:38:08.285Z,78.20
2018-06-24T21:40:36.561Z,78.40
2018-06-24T21:43:04.796Z,78.60
2018-06-24T21:45:33.081Z,78.60
2018-06-24T21:48:01.346Z,78.70
2018-06-24T21:50:29.582Z,78.70
2018-06-24T21:52:57.861Z,78.90
2018-06-24T21:55:26.148Z,79.00
2018-06-24T21:57:54.371Z,79.00
2018-06-24T22:00:22.664Z,79.20
2018-06-24T22:02:50.847Z,79.30
2018-06-24T22:05:19.094Z,79.60
2018-06-24T22:07:47.325Z,79.90
2018-06-24T22:10:15.566Z,80.10
2018-06-24T22:12:43.818Z,80.40
2018-06-24T22:15:12.035Z,80.60
2018-06-24T22:17:40.272Z,80.80
2018-06-24T22:20:08.538Z,81.10
2018-06-24T22:22:36.758Z,81.00
2018-06-24T22:25:05.108Z,81.20
2018-06-24T22:27:33.315Z,81.40
2018-06-24T22:30:01.495Z,81.60
2018-06-24T22:32:29.757Z,81.80
2018-06-24T22:34:58.021Z,81.90
2018-06-24T22:37:26.272Z,82.10
2018-06-24T22:39:54.535Z,82.20
2018-06-24T22:42:22.756Z,82.40
2018-06-24T22:44:51.026Z,82.50
2018-06-24T22:47:19.285Z,82.70
2018-06-24T22:49:47.483Z,82.90
2018-06-24T22:52:15.757Z,82.90
2018-06-24T22:54:44.013Z,83.00
2018-06-24T22:57:12.360Z,83.10
2018-06-24T22:59:51.831Z,83.40
2018-06-24T23:02:20.038Z,83.40
2018-06-24T23:04:48.281Z,83.60
2018-06-24T23:07:16.559Z,83.80
2018-06-24T23:09:44.746Z,84.00
2018-06-24T23:12:12.988Z,84.30
2018-06-24T23:14:41.248Z,84.40
2018-06-24T23:17:09.753Z,84.50
2018-06-24T23:19:38.007Z,84.60
2018-06-24T23:22:06.273Z,84.70
2018-06-24T23:24:34.531Z,84.80
2018-06-24T23:27:02.823Z,84.90
2018-06-24T23:29:31.006Z,85.00
2018-06-24T23:31:59.289Z,85.10
2018-06-24T23:34:27.525Z,85.00
2018-06-24T23:36:55.780Z,85.10
2018-06-24T23:39:23.963Z,85.10
2018-06-24T23:41:52.212Z,85.00
2018-06-24T23:44:20.475Z,85.00
2018-06-24T23:46:48.703Z,84.90
2018-06-24T23:49:16.904Z,85.10
2018-06-24T23:51:45.087Z,85.20
2018-06-24T23:54:13.280Z,85.40
2018-06-24T23:56:41.484Z,85.60
2018-06-24T23:59:09.690Z,85.60
